sensor_id;sensor_type;location;lat;lon;timestamp;P1;durP1;ratioP1;P2;durP2;ratioP2
10489;SDS011;35569;48.402;10.670;2022-12-18T00:00:30;17.77;;;16.10;;
10489;SDS011;35569;48.402;10.670;2022-12-18T00:01:12;17.95;;;16.25;;
10489;SDS011;35569;48.402;10.670;2022-12-18T00:01:46;17.85;;;16.15;;
10489;SDS011;35569;48.402;10.670;2022-12-18T00:02:19;18.38;;;16.65;;
10489;SDS011;35569;48.402;10.670;2022-12-18T00:02:55;17.83;;;16.13;;
10489;SDS011;35569;48.402;10.670;2022-12-18T00:03:27;19.73;;;17.60;;
10489;SDS011;35569;48.402;10.670;2022-12-18T00:04:00;17.38;;;15.73;;
10489;SDS011;35569;48.402;10.670;2022-12-18T00:04:37;18.92;;;17.02;;
10489;SDS011;35569;48.402;10.670;2022-12-18T00:05:09;17.75;;;15.93;;
10489;SDS011;35569;48.402;10.670;2022-12-18T00:05:50;18.13;;;16.20;;
10489;SDS011;35569;48.402;10.670;2022-12-18T00:06:25;17.58;;;15.90;;
10489;SDS011;35569;48.402;10.670;2022-12-18T00:06:59;18.58;;;16.88;;
10489;SDS011;35569;48.402;10.670;2022-12-18T00:07:31;21.27;;;17.63;;
10489;SDS011;35569;48.402;10.670;2022-12-18T00:08:06;17.92;;;16.30;;
10489;SDS011;35569;48.402;10.670;2022-12-18T00:08:40;17.92;;;16.27;;
10489;SDS011;35569;48.402;10.670;2022-12-18T00:09:12;18.10;;;16.30;;
10489;SDS011;35569;48.402;10.670;2022-12-18T00:09:47;18.10;;;16.33;;
10489;SDS011;35569;48.402;10.670;2022-12-18T00:10:19;18.40;;;16.70;;
10489;SDS011;35569;48.402;10.670;2022-12-18T00:10:54;19.30;;;17.40;;
10489;SDS011;35569;48.402;10.670;2022-12-18T00:11:31;18.65;;;16.95;;
10489;SDS011;35569;48.402;10.670;2022-12-18T00:12:03;18.98;;;17.23;;
10489;SDS011;35569;48.402;10.670;2022-12-18T00:12:46;17.98;;;16.17;;
10489;SDS011;35569;48.402;10.670;2022-12-18T00:13:18;18.38;;;16.75;;
10489;SDS011;35569;48.402;10.670;2022-12-18T00:13:50;19.60;;;17.65;;
10489;SDS011;35569;48.402;10.670;2022-12-18T00:14:27;18.80;;;17.10;;
10489;SDS011;35569;48.402;10.670;2022-12-18T00:14:59;19.63;;;17.83;;
10489;SDS011;35569;48.402;10.670;2022-12-18T00:15:33;19.25;;;17.42;;
10489;SDS011;35569;48.402;10.670;2022-12-18T00:16:10;18.52;;;16.83;;
10489;SDS011;35569;48.402;10.670;2022-12-18T00:16:44;20.58;;;18.40;;
10489;SDS011;35569;48.402;10.670;2022-12-18T00:17:17;18.98;;;17.13;;
10489;SDS011;35569;48.402;10.670;2022-12-18T00:17:52;19.00;;;17.08;;
10489;SDS011;35569;48.402;10.670;2022-12-18T00:18:25;19.92;;;17.55;;
10489;SDS011;35569;48.402;10.670;2022-12-18T00:18:57;18.70;;;16.85;;
10489;SDS011;35569;48.402;10.670;2022-12-18T00:19:32;19.38;;;17.42;;
10489;SDS011;35569;48.402;10.670;2022-12-18T00:20:04;19.55;;;17.67;;
10489;SDS011;35569;48.402;10.670;2022-12-18T00:20:40;19.42;;;17.35;;
10489;SDS011;35569;48.402;10.670;2022-12-18T00:21:15;18.08;;;16.48;;
10489;SDS011;35569;48.402;10.670;2022-12-18T00:21:47;18.98;;;17.17;;
10489;SDS011;35569;48.402;10.670;2022-12-18T00:22:22;19.13;;;17.30;;
10489;SDS011;35569;48.402;10.670;2022-12-18T00:22:55;18.83;;;17.13;;
10489;SDS011;35569;48.402;10.670;2022-12-18T00:23:27;19.00;;;17.10;;
10489;SDS011;35569;48.402;10.670;2022-12-18T00:24:02;18.77;;;16.98;;
10489;SDS011;35569;48.402;10.670;2022-12-18T00:24:34;17.77;;;16.17;;
10489;SDS011;35569;48.402;10.670;2022-12-18T00:25:09;18.25;;;16.60;;
10489;SDS011;35569;48.402;10.670;2022-12-18T00:25:41;19.35;;;17.33;;
10489;SDS011;35569;48.402;10.670;2022-12-18T00:26:14;18.75;;;16.80;;
10489;SDS011;35569;48.402;10.670;2022-12-18T00:26:48;18.65;;;16.90;;
10489;SDS011;35569;48.402;10.670;2022-12-18T00:27:23;18.25;;;16.35;;
10489;SDS011;35569;48.402;10.670;2022-12-18T00:27:55;19.35;;;17.50;;
10489;SDS011;35569;48.402;10.670;2022-12-18T00:28:27;19.15;;;17.35;;
10489;SDS011;35569;48.402;10.670;2022-12-18T00:29:00;21.00;;;18.85;;
10489;SDS011;35569;48.402;10.670;2022-12-18T00:29:36;19.23;;;17.52;;
10489;SDS011;35569;48.402;10.670;2022-12-18T00:30:12;20.38;;;18.45;;
10489;SDS011;35569;48.402;10.670;2022-12-18T00:30:44;18.40;;;16.70;;
10489;SDS011;35569;48.402;10.670;2022-12-18T00:31:23;20.55;;;18.48;;
10489;SDS011;35569;48.402;10.670;2022-12-18T00:31:57;19.15;;;17.50;;
10489;SDS011;35569;48.402;10.670;2022-12-18T00:32:29;20.55;;;18.45;;
10489;SDS011;35569;48.402;10.670;2022-12-18T00:33:06;20.05;;;17.90;;
10489;SDS011;35569;48.402;10.670;2022-12-18T00:33:38;18.42;;;16.55;;
10489;SDS011;35569;48.402;10.670;2022-12-18T00:34:13;19.23;;;17.33;;
10489;SDS011;35569;48.402;10.670;2022-12-18T00:34:48;20.90;;;18.70;;
10489;SDS011;35569;48.402;10.670;2022-12-18T00:35:20;20.02;;;18.02;;
10489;SDS011;35569;48.402;10.670;2022-12-18T00:35:53;20.13;;;18.15;;
10489;SDS011;35569;48.402;10.670;2022-12-18T00:36:31;19.38;;;17.48;;
10489;SDS011;35569;48.402;10.670;2022-12-18T00:37:04;19.63;;;17.63;;
10489;SDS011;35569;48.402;10.670;2022-12-18T00:37:37;20.40;;;18.38;;
10489;SDS011;35569;48.402;10.670;2022-12-18T00:38:11;19.48;;;17.48;;
10489;SDS011;35569;48.402;10.670;2022-12-18T00:38:45;20.38;;;18.13;;
10489;SDS011;35569;48.402;10.670;2022-12-18T00:39:17;19.10;;;17.30;;
10489;SDS011;35569;48.402;10.670;2022-12-18T00:39:52;21.33;;;18.40;;
10489;SDS011;35569;48.402;10.670;2022-12-18T00:40:24;20.77;;;18.15;;
10489;SDS011;35569;48.402;10.670;2022-12-18T00:40:57;20.30;;;18.20;;
10489;SDS011;35569;48.402;10.670;2022-12-18T00:41:30;19.10;;;17.40;;
10489;SDS011;35569;48.402;10.670;2022-12-18T00:42:17;18.92;;;17.02;;
10489;SDS011;35569;48.402;10.670;2022-12-18T00:43:07;20.05;;;18.08;;
10489;SDS011;35569;48.402;10.670;2022-12-18T00:43:42;18.63;;;16.73;;
10489;SDS011;35569;48.402;10.670;2022-12-18T00:44:15;18.85;;;17.10;;
10489;SDS011;35569;48.402;10.670;2022-12-18T00:44:49;18.52;;;16.63;;
10489;SDS011;35569;48.402;10.670;2022-12-18T00:45:24;19.40;;;17.60;;
10489;SDS011;35569;48.402;10.670;2022-12-18T00:45:57;18.85;;;16.90;;
10489;SDS011;35569;48.402;10.670;2022-12-18T00:46:30;19.65;;;17.75;;
10489;SDS011;35569;48.402;10.670;2022-12-18T00:47:02;22.17;;;18.60;;
10489;SDS011;35569;48.402;10.670;2022-12-18T00:47:37;19.60;;;17.80;;
10489;SDS011;35569;48.402;10.670;2022-12-18T00:48:09;18.70;;;17.00;;
10489;SDS011;35569;48.402;10.670;2022-12-18T00:48:42;19.15;;;17.33;;
10489;SDS011;35569;48.402;10.670;2022-12-18T00:49:16;19.60;;;17.70;;
10489;SDS011;35569;48.402;10.670;2022-12-18T00:49:52;20.42;;;18.25;;
10489;SDS011;35569;48.402;10.670;2022-12-18T00:50:24;19.92;;;18.02;;
10489;SDS011;35569;48.402;10.670;2022-12-18T00:50:57;19.52;;;17.55;;
10489;SDS011;35569;48.402;10.670;2022-12-18T00:51:35;19.25;;;17.45;;
10489;SDS011;35569;48.402;10.670;2022-12-18T00:52:07;18.80;;;17.08;;
10489;SDS011;35569;48.402;10.670;2022-12-18T00:52:39;19.75;;;17.75;;
10489;SDS011;35569;48.402;10.670;2022-12-18T00:53:14;19.50;;;17.73;;
10489;SDS011;35569;48.402;10.670;2022-12-18T00:53:46;18.88;;;16.88;;
10489;SDS011;35569;48.402;10.670;2022-12-18T00:54:18;18.48;;;16.63;;
10489;SDS011;35569;48.402;10.670;2022-12-18T00:54:54;18.45;;;16.55;;
10489;SDS011;35569;48.402;10.670;2022-12-18T00:55:26;18.67;;;16.88;;
10489;SDS011;35569;48.402;10.670;2022-12-18T00:55:58;20.17;;;18.05;;
10489;SDS011;35569;48.402;10.670;2022-12-18T00:56:30;17.67;;;16.08;;
10489;SDS011;35569;48.402;10.670;2022-12-18T00:57:05;18.90;;;16.83;;
10489;SDS011;35569;48.402;10.670;2022-12-18T00:57:38;19.02;;;17.02;;
10489;SDS011;35569;48.402;10.670;2022-12-18T00:58:11;18.95;;;17.02;;
10489;SDS011;35569;48.402;10.670;2022-12-18T00:58:46;17.88;;;16.23;;
10489;SDS011;35569;48.402;10.670;2022-12-18T00:59:19;18.30;;;16.42;;
10489;SDS011;35569;48.402;10.670;2022-12-18T00:59:51;17.63;;;16.02;;
10489;SDS011;35569;48.402;10.670;2022-12-18T01:00:23;18.67;;;16.85;;
10489;SDS011;35569;48.402;10.670;2022-12-18T01:00:58;19.75;;;17.90;;
10489;SDS011;35569;48.402;10.670;2022-12-18T01:01:31;19.40;;;16.85;;
10489;SDS011;35569;48.402;10.670;2022-12-18T01:02:04;19.92;;;18.13;;
10489;SDS011;35569;48.402;10.670;2022-12-18T01:02:41;19.05;;;17.27;;
10489;SDS011;35569;48.402;10.670;2022-12-18T01:03:14;18.60;;;16.95;;
10489;SDS011;35569;48.402;10.670;2022-12-18T01:03:48;19.92;;;17.92;;
10489;SDS011;35569;48.402;10.670;2022-12-18T01:04:20;20.15;;;18.00;;
10489;SDS011;35569;48.402;10.670;2022-12-18T01:04:55;22.02;;;17.23;;
10489;SDS011;35569;48.402;10.670;2022-12-18T01:05:27;20.02;;;17.92;;
10489;SDS011;35569;48.402;10.670;2022-12-18T01:06:04;17.92;;;16.33;;
10489;SDS011;35569;48.402;10.670;2022-12-18T01:06:42;21.20;;;19.02;;
10489;SDS011;35569;48.402;10.670;2022-12-18T01:07:15;20.15;;;18.05;;
10489;SDS011;35569;48.402;10.670;2022-12-18T01:07:47;20.15;;;18.05;;
10489;SDS011;35569;48.402;10.670;2022-12-18T01:08:23;19.48;;;17.67;;
10489;SDS011;35569;48.402;10.670;2022-12-18T01:08:56;20.33;;;18.17;;
10489;SDS011;35569;48.402;10.670;2022-12-18T01:09:28;20.48;;;18.48;;
10489;SDS011;35569;48.402;10.670;2022-12-18T01:10:04;19.95;;;17.77;;
10489;SDS011;35569;48.402;10.670;2022-12-18T01:10:39;21.13;;;19.10;;
10489;SDS011;35569;48.402;10.670;2022-12-18T01:11:13;20.30;;;18.40;;
10489;SDS011;35569;48.402;10.670;2022-12-18T01:11:46;20.98;;;18.15;;
10489;SDS011;35569;48.402;10.670;2022-12-18T01:12:21;20.48;;;18.45;;
10489;SDS011;35569;48.402;10.670;2022-12-18T01:12:54;19.90;;;17.98;;
10489;SDS011;35569;48.402;10.670;2022-12-18T01:13:27;22.40;;;18.80;;
10489;SDS011;35569;48.402;10.670;2022-12-18T01:13:59;19.80;;;18.00;;
10489;SDS011;35569;48.402;10.670;2022-12-18T01:14:34;21.45;;;18.90;;
10489;SDS011;35569;48.402;10.670;2022-12-18T01:15:07;20.25;;;18.25;;
10489;SDS011;35569;48.402;10.670;2022-12-18T01:15:47;20.58;;;18.48;;
10489;SDS011;35569;48.402;10.670;2022-12-18T01:16:22;20.30;;;18.20;;
10489;SDS011;35569;48.402;10.670;2022-12-18T01:16:54;22.45;;;19.20;;
10489;SDS011;35569;48.402;10.670;2022-12-18T01:17:29;23.02;;;19.35;;
10489;SDS011;35569;48.402;10.670;2022-12-18T01:18:01;20.42;;;18.15;;
10489;SDS011;35569;48.402;10.670;2022-12-18T01:18:36;19.55;;;17.40;;
10489;SDS011;35569;48.402;10.670;2022-12-18T01:19:09;21.10;;;19.00;;
10489;SDS011;35569;48.402;10.670;2022-12-18T01:19:44;21.83;;;18.88;;
10489;SDS011;35569;48.402;10.670;2022-12-18T01:20:16;20.85;;;18.85;;
10489;SDS011;35569;48.402;10.670;2022-12-18T01:20:49;22.70;;;20.00;;
10489;SDS011;35569;48.402;10.670;2022-12-18T01:21:22;21.17;;;18.80;;
10489;SDS011;35569;48.402;10.670;2022-12-18T01:22:00;23.00;;;19.88;;
10489;SDS011;35569;48.402;10.670;2022-12-18T01:22:32;20.25;;;18.25;;
10489;SDS011;35569;48.402;10.670;2022-12-18T01:23:04;21.63;;;19.52;;
10489;SDS011;35569;48.402;10.670;2022-12-18T01:23:37;20.48;;;18.48;;
10489;SDS011;35569;48.402;10.670;2022-12-18T01:24:15;22.05;;;19.85;;
10489;SDS011;35569;48.402;10.670;2022-12-18T01:24:48;21.80;;;19.60;;
10489;SDS011;35569;48.402;10.670;2022-12-18T01:25:20;21.88;;;19.58;;
10489;SDS011;35569;48.402;10.670;2022-12-18T01:25:55;21.17;;;19.17;;
10489;SDS011;35569;48.402;10.670;2022-12-18T01:26:27;21.73;;;19.63;;
10489;SDS011;35569;48.402;10.670;2022-12-18T01:27:01;21.02;;;18.95;;
10489;SDS011;35569;48.402;10.670;2022-12-18T01:27:36;21.15;;;19.02;;
10489;SDS011;35569;48.402;10.670;2022-12-18T01:28:08;20.17;;;18.27;;
10489;SDS011;35569;48.402;10.670;2022-12-18T01:28:40;21.38;;;19.27;;
10489;SDS011;35569;48.402;10.670;2022-12-18T01:29:16;20.02;;;18.00;;
10489;SDS011;35569;48.402;10.670;2022-12-18T01:29:49;23.40;;;17.80;;
10489;SDS011;35569;48.402;10.670;2022-12-18T01:30:23;20.50;;;18.40;;
10489;SDS011;35569;48.402;10.670;2022-12-18T01:31:08;21.45;;;19.25;;
10489;SDS011;35569;48.402;10.670;2022-12-18T01:31:42;21.95;;;18.27;;
10489;SDS011;35569;48.402;10.670;2022-12-18T01:32:14;20.85;;;18.77;;
10489;SDS011;35569;48.402;10.670;2022-12-18T01:32:49;20.90;;;18.23;;
10489;SDS011;35569;48.402;10.670;2022-12-18T01:33:21;19.42;;;17.65;;
10489;SDS011;35569;48.402;10.670;2022-12-18T01:33:54;21.35;;;19.08;;
10489;SDS011;35569;48.402;10.670;2022-12-18T01:34:29;20.77;;;18.60;;
10489;SDS011;35569;48.402;10.670;2022-12-18T01:35:01;20.67;;;18.50;;
10489;SDS011;35569;48.402;10.670;2022-12-18T01:35:39;21.27;;;19.05;;
10489;SDS011;35569;48.402;10.670;2022-12-18T01:36:15;20.70;;;18.58;;
10489;SDS011;35569;48.402;10.670;2022-12-18T01:36:49;20.05;;;17.85;;
10489;SDS011;35569;48.402;10.670;2022-12-18T01:37:26;20.10;;;18.27;;
10489;SDS011;35569;48.402;10.670;2022-12-18T01:38:01;20.35;;;18.30;;
10489;SDS011;35569;48.402;10.670;2022-12-18T01:38:33;19.55;;;17.75;;
10489;SDS011;35569;48.402;10.670;2022-12-18T01:39:06;19.85;;;17.83;;
10489;SDS011;35569;48.402;10.670;2022-12-18T01:39:45;19.90;;;18.10;;
10489;SDS011;35569;48.402;10.670;2022-12-18T01:40:18;21.33;;;19.33;;
10489;SDS011;35569;48.402;10.670;2022-12-18T01:40:51;19.00;;;17.30;;
10489;SDS011;35569;48.402;10.670;2022-12-18T01:41:32;20.08;;;18.08;;
10489;SDS011;35569;48.402;10.670;2022-12-18T01:42:20;20.05;;;18.15;;
10489;SDS011;35569;48.402;10.670;2022-12-18T01:42:52;18.80;;;17.05;;
10489;SDS011;35569;48.402;10.670;2022-12-18T01:45:24;16.85;;;15.25;;
10489;SDS011;35569;48.402;10.670;2022-12-18T01:46:00;17.70;;;16.00;;
10489;SDS011;35569;48.402;10.670;2022-12-18T01:46:34;17.30;;;15.68;;
10489;SDS011;35569;48.402;10.670;2022-12-18T01:47:06;18.30;;;16.50;;
10489;SDS011;35569;48.402;10.670;2022-12-18T01:47:50;16.42;;;14.93;;
10489;SDS011;35569;48.402;10.670;2022-12-18T01:48:26;16.00;;;14.48;;
10489;SDS011;35569;48.402;10.670;2022-12-18T01:48:59;16.40;;;15.00;;
10489;SDS011;35569;48.402;10.670;2022-12-18T01:49:32;14.73;;;13.52;;
10489;SDS011;35569;48.402;10.670;2022-12-18T01:50:08;15.63;;;14.00;;
10489;SDS011;35569;48.402;10.670;2022-12-18T01:50:42;17.33;;;15.57;;
10489;SDS011;35569;48.402;10.670;2022-12-18T01:51:15;15.20;;;13.90;;
10489;SDS011;35569;48.402;10.670;2022-12-18T01:51:49;16.00;;;14.52;;
10489;SDS011;35569;48.402;10.670;2022-12-18T01:52:22;15.23;;;13.93;;
10489;SDS011;35569;48.402;10.670;2022-12-18T01:53:02;15.20;;;13.70;;
10489;SDS011;35569;48.402;10.670;2022-12-18T01:53:41;16.20;;;14.65;;
10489;SDS011;35569;48.402;10.670;2022-12-18T01:54:14;16.00;;;14.60;;
10489;SDS011;35569;48.402;10.670;2022-12-18T01:54:46;15.80;;;14.30;;
10489;SDS011;35569;48.402;10.670;2022-12-18T01:55:20;15.75;;;14.30;;
10489;SDS011;35569;48.402;10.670;2022-12-18T01:55:57;15.57;;;14.38;;
10489;SDS011;35569;48.402;10.670;2022-12-18T01:56:30;15.40;;;14.10;;
10489;SDS011;35569;48.402;10.670;2022-12-18T01:57:03;15.43;;;14.13;;
10489;SDS011;35569;48.402;10.670;2022-12-18T01:57:35;15.30;;;14.10;;
10489;SDS011;35569;48.402;10.670;2022-12-18T01:58:11;14.73;;;13.43;;
10489;SDS011;35569;48.402;10.670;2022-12-18T01:58:46;16.02;;;14.45;;
10489;SDS011;35569;48.402;10.670;2022-12-18T01:59:22;15.93;;;14.40;;
10489;SDS011;35569;48.402;10.670;2022-12-18T01:59:59;16.10;;;14.70;;
10489;SDS011;35569;48.402;10.670;2022-12-18T02:00:43;15.32;;;13.93;;
10489;SDS011;35569;48.402;10.670;2022-12-18T02:01:19;15.88;;;14.57;;
10489;SDS011;35569;48.402;10.670;2022-12-18T02:01:52;17.73;;;16.17;;
10489;SDS011;35569;48.402;10.670;2022-12-18T02:02:25;16.10;;;14.70;;
10489;SDS011;35569;48.402;10.670;2022-12-18T02:02:58;16.23;;;14.75;;
10489;SDS011;35569;48.402;10.670;2022-12-18T02:03:33;16.23;;;14.68;;
10489;SDS011;35569;48.402;10.670;2022-12-18T02:04:19;16.40;;;14.80;;
10489;SDS011;35569;48.402;10.670;2022-12-18T02:04:52;16.27;;;14.98;;
10489;SDS011;35569;48.402;10.670;2022-12-18T02:05:29;15.25;;;13.95;;
10489;SDS011;35569;48.402;10.670;2022-12-18T02:06:09;17.00;;;15.40;;
10489;SDS011;35569;48.402;10.670;2022-12-18T02:06:45;16.40;;;14.98;;
10489;SDS011;35569;48.402;10.670;2022-12-18T02:07:24;15.77;;;14.43;;
10489;SDS011;35569;48.402;10.670;2022-12-18T02:08:04;16.95;;;15.27;;
10489;SDS011;35569;48.402;10.670;2022-12-18T02:08:41;15.90;;;14.48;;
10489;SDS011;35569;48.402;10.670;2022-12-18T02:09:22;15.15;;;13.75;;
10489;SDS011;35569;48.402;10.670;2022-12-18T02:09:59;15.20;;;13.80;;
10489;SDS011;35569;48.402;10.670;2022-12-18T02:10:34;14.90;;;13.50;;
10489;SDS011;35569;48.402;10.670;2022-12-18T02:11:15;15.15;;;13.85;;
10489;SDS011;35569;48.402;10.670;2022-12-18T02:11:52;14.82;;;13.63;;
10489;SDS011;35569;48.402;10.670;2022-12-18T02:12:30;15.90;;;14.27;;
10489;SDS011;35569;48.402;10.670;2022-12-18T02:13:12;15.90;;;14.38;;
10489;SDS011;35569;48.402;10.670;2022-12-18T02:13:49;16.08;;;14.57;;
10489;SDS011;35569;48.402;10.670;2022-12-18T02:14:28;15.35;;;14.15;;
10489;SDS011;35569;48.402;10.670;2022-12-18T02:15:10;15.85;;;14.35;;
10489;SDS011;35569;48.402;10.670;2022-12-18T02:15:48;16.08;;;14.57;;
10489;SDS011;35569;48.402;10.670;2022-12-18T02:16:25;15.60;;;14.40;;
10489;SDS011;35569;48.402;10.670;2022-12-18T02:17:07;15.80;;;14.40;;
10489;SDS011;35569;48.402;10.670;2022-12-18T02:17:42;16.90;;;15.38;;
10489;SDS011;35569;48.402;10.670;2022-12-18T02:18:18;15.07;;;13.77;;
10489;SDS011;35569;48.402;10.670;2022-12-18T02:18:56;16.20;;;14.60;;
10489;SDS011;35569;48.402;10.670;2022-12-18T02:19:37;18.83;;;16.75;;
10489;SDS011;35569;48.402;10.670;2022-12-18T02:20:14;17.10;;;15.60;;
10489;SDS011;35569;48.402;10.670;2022-12-18T02:20:53;18.33;;;16.63;;
10489;SDS011;35569;48.402;10.670;2022-12-18T02:21:30;17.33;;;15.57;;
10489;SDS011;35569;48.402;10.670;2022-12-18T02:22:11;18.50;;;16.80;;
10489;SDS011;35569;48.402;10.670;2022-12-18T02:22:58;18.02;;;16.15;;
10489;SDS011;35569;48.402;10.670;2022-12-18T02:23:41;17.05;;;15.40;;
10489;SDS011;35569;48.402;10.670;2022-12-18T02:24:26;18.42;;;16.52;;
10489;SDS011;35569;48.402;10.670;2022-12-18T02:25:06;16.30;;;14.70;;
10489;SDS011;35569;48.402;10.670;2022-12-18T02:25:55;17.02;;;15.35;;
10489;SDS011;35569;48.402;10.670;2022-12-18T02:26:37;17.70;;;16.00;;
10489;SDS011;35569;48.402;10.670;2022-12-18T02:27:12;17.67;;;15.93;;
10489;SDS011;35569;48.402;10.670;2022-12-18T02:27:49;17.13;;;15.52;;
10489;SDS011;35569;48.402;10.670;2022-12-18T02:28:25;17.25;;;15.52;;
10489;SDS011;35569;48.402;10.670;2022-12-18T02:29:04;18.05;;;16.25;;
10489;SDS011;35569;48.402;10.670;2022-12-18T02:29:42;17.75;;;16.05;;
10489;SDS011;35569;48.402;10.670;2022-12-18T02:30:17;17.52;;;16.05;;
10489;SDS011;35569;48.402;10.670;2022-12-18T02:30:50;17.48;;;15.88;;
10489;SDS011;35569;48.402;10.670;2022-12-18T02:31:27;18.13;;;16.52;;
10489;SDS011;35569;48.402;10.670;2022-12-18T02:32:02;18.23;;;16.63;;
10489;SDS011;35569;48.402;10.670;2022-12-18T02:32:38;18.10;;;16.30;;
10489;SDS011;35569;48.402;10.670;2022-12-18T02:33:14;17.85;;;16.17;;
10489;SDS011;35569;48.402;10.670;2022-12-18T02:33:48;17.00;;;15.50;;
10489;SDS011;35569;48.402;10.670;2022-12-18T02:34:23;15.90;;;14.65;;
10489;SDS011;35569;48.402;10.670;2022-12-18T02:35:02;18.27;;;16.60;;
10489;SDS011;35569;48.402;10.670;2022-12-18T02:35:37;17.17;;;15.68;;
10489;SDS011;35569;48.402;10.670;2022-12-18T02:36:12;16.95;;;15.50;;
10489;SDS011;35569;48.402;10.670;2022-12-18T02:36:48;17.17;;;15.45;;
10489;SDS011;35569;48.402;10.670;2022-12-18T02:37:21;15.77;;;14.45;;
10489;SDS011;35569;48.402;10.670;2022-12-18T02:37:55;17.40;;;15.85;;
10489;SDS011;35569;48.402;10.670;2022-12-18T02:38:34;16.55;;;15.13;;
10489;SDS011;35569;48.402;10.670;2022-12-18T02:39:14;17.52;;;16.02;;
10489;SDS011;35569;48.402;10.670;2022-12-18T02:39:59;17.45;;;15.93;;
10489;SDS011;35569;48.402;10.670;2022-12-18T02:40:36;17.95;;;16.30;;
10489;SDS011;35569;48.402;10.670;2022-12-18T02:41:12;16.50;;;14.90;;
10489;SDS011;35569;48.402;10.670;2022-12-18T02:41:45;16.40;;;15.00;;
10489;SDS011;35569;48.402;10.670;2022-12-18T02:42:19;17.90;;;16.17;;
10489;SDS011;35569;48.402;10.670;2022-12-18T02:42:54;18.30;;;16.60;;
10489;SDS011;35569;48.402;10.670;2022-12-18T02:43:27;16.42;;;15.02;;
10489;SDS011;35569;48.402;10.670;2022-12-18T02:44:07;18.10;;;16.50;;
10489;SDS011;35569;48.402;10.670;2022-12-18T02:44:46;16.08;;;14.68;;
10489;SDS011;35569;48.402;10.670;2022-12-18T02:45:22;16.95;;;15.30;;
10489;SDS011;35569;48.402;10.670;2022-12-18T02:45:57;17.35;;;15.65;;
10489;SDS011;35569;48.402;10.670;2022-12-18T02:46:36;17.60;;;15.77;;
10489;SDS011;35569;48.402;10.670;2022-12-18T02:47:15;17.00;;;15.50;;
10489;SDS011;35569;48.402;10.670;2022-12-18T02:47:49;16.60;;;15.18;;
10489;SDS011;35569;48.402;10.670;2022-12-18T02:48:27;16.05;;;14.73;;
10489;SDS011;35569;48.402;10.670;2022-12-18T02:49:06;17.05;;;15.38;;
10489;SDS011;35569;48.402;10.670;2022-12-18T02:49:45;17.38;;;15.88;;
10489;SDS011;35569;48.402;10.670;2022-12-18T02:50:26;17.73;;;16.08;;
10489;SDS011;35569;48.402;10.670;2022-12-18T02:51:03;17.05;;;15.65;;
10489;SDS011;35569;48.402;10.670;2022-12-18T02:51:44;16.30;;;14.80;;
10489;SDS011;35569;48.402;10.670;2022-12-18T02:52:25;17.80;;;16.15;;
10489;SDS011;35569;48.402;10.670;2022-12-18T02:53:04;17.52;;;15.82;;
10489;SDS011;35569;48.402;10.670;2022-12-18T02:53:47;17.23;;;15.68;;
10489;SDS011;35569;48.402;10.670;2022-12-18T02:54:29;16.80;;;15.20;;
10489;SDS011;35569;48.402;10.670;2022-12-18T02:55:12;16.65;;;15.07;;
10489;SDS011;35569;48.402;10.670;2022-12-18T02:56:03;15.32;;;13.95;;
10489;SDS011;35569;48.402;10.670;2022-12-18T02:56:41;17.83;;;15.93;;
10489;SDS011;35569;48.402;10.670;2022-12-18T02:57:21;18.27;;;16.73;;
10489;SDS011;35569;48.402;10.670;2022-12-18T02:58:03;16.48;;;14.90;;
10489;SDS011;35569;48.402;10.670;2022-12-18T02:58:44;17.85;;;16.17;;
10489;SDS011;35569;48.402;10.670;2022-12-18T02:59:34;16.48;;;14.80;;
10489;SDS011;35569;48.402;10.670;2022-12-18T03:00:12;16.65;;;15.25;;
10489;SDS011;35569;48.402;10.670;2022-12-18T03:00:48;16.25;;;14.88;;
10489;SDS011;35569;48.402;10.670;2022-12-18T03:01:28;15.20;;;13.85;;
10489;SDS011;35569;48.402;10.670;2022-12-18T03:02:07;17.05;;;15.25;;
10489;SDS011;35569;48.402;10.670;2022-12-18T03:02:51;17.33;;;15.63;;
10489;SDS011;35569;48.402;10.670;2022-12-18T03:03:31;16.27;;;14.95;;
10489;SDS011;35569;48.402;10.670;2022-12-18T03:04:09;16.52;;;14.98;;
10489;SDS011;35569;48.402;10.670;2022-12-18T03:04:47;16.63;;;15.10;;
10489;SDS011;35569;48.402;10.670;2022-12-18T03:05:27;16.48;;;14.98;;
10489;SDS011;35569;48.402;10.670;2022-12-18T03:06:04;17.38;;;15.57;;
10489;SDS011;35569;48.402;10.670;2022-12-18T03:06:39;17.73;;;16.08;;
10489;SDS011;35569;48.402;10.670;2022-12-18T03:07:18;16.70;;;15.30;;
10489;SDS011;35569;48.402;10.670;2022-12-18T03:07:53;16.40;;;14.85;;
10489;SDS011;35569;48.402;10.670;2022-12-18T03:08:33;17.65;;;15.95;;
10489;SDS011;35569;48.402;10.670;2022-12-18T03:09:10;17.45;;;15.85;;
10489;SDS011;35569;48.402;10.670;2022-12-18T03:09:46;16.25;;;14.75;;
10489;SDS011;35569;48.402;10.670;2022-12-18T03:10:24;16.58;;;15.10;;
10489;SDS011;35569;48.402;10.670;2022-12-18T03:11:03;17.33;;;15.73;;
10489;SDS011;35569;48.402;10.670;2022-12-18T03:11:41;17.55;;;15.85;;
10489;SDS011;35569;48.402;10.670;2022-12-18T03:12:34;16.17;;;14.65;;
10489;SDS011;35569;48.402;10.670;2022-12-18T03:13:08;17.35;;;15.85;;
10489;SDS011;35569;48.402;10.670;2022-12-18T03:13:47;16.50;;;15.00;;
10489;SDS011;35569;48.402;10.670;2022-12-18T03:14:21;16.30;;;14.95;;
10489;SDS011;35569;48.402;10.670;2022-12-18T03:14:56;16.17;;;14.75;;
10489;SDS011;35569;48.402;10.670;2022-12-18T03:15:31;15.98;;;14.57;;
10489;SDS011;35569;48.402;10.670;2022-12-18T03:16:14;17.38;;;15.77;;
10489;SDS011;35569;48.402;10.670;2022-12-18T03:16:52;15.80;;;14.40;;
10489;SDS011;35569;48.402;10.670;2022-12-18T03:17:27;16.67;;;15.18;;
10489;SDS011;35569;48.402;10.670;2022-12-18T03:18:01;17.38;;;15.77;;
10489;SDS011;35569;48.402;10.670;2022-12-18T03:18:40;15.57;;;14.25;;
10489;SDS011;35569;48.402;10.670;2022-12-18T03:19:15;16.38;;;14.88;;
10489;SDS011;35569;48.402;10.670;2022-12-18T03:19:48;15.02;;;13.68;;
10489;SDS011;35569;48.402;10.670;2022-12-18T03:20:22;15.77;;;14.30;;
10489;SDS011;35569;48.402;10.670;2022-12-18T03:20:58;15.57;;;14.13;;
10489;SDS011;35569;48.402;10.670;2022-12-18T03:21:35;15.07;;;13.77;;
10489;SDS011;35569;48.402;10.670;2022-12-18T03:22:11;15.43;;;14.10;;
10489;SDS011;35569;48.402;10.670;2022-12-18T03:22:52;16.85;;;15.35;;
10489;SDS011;35569;48.402;10.670;2022-12-18T03:23:27;15.98;;;14.48;;
10489;SDS011;35569;48.402;10.670;2022-12-18T03:24:04;16.85;;;15.25;;
10489;SDS011;35569;48.402;10.670;2022-12-18T03:24:39;15.25;;;13.85;;
10489;SDS011;35569;48.402;10.670;2022-12-18T03:25:13;14.65;;;13.45;;
10489;SDS011;35569;48.402;10.670;2022-12-18T03:25:50;15.48;;;14.15;;
10489;SDS011;35569;48.402;10.670;2022-12-18T03:26:26;15.10;;;13.70;;
10489;SDS011;35569;48.402;10.670;2022-12-18T03:27:10;15.25;;;13.95;;
10489;SDS011;35569;48.402;10.670;2022-12-18T03:27:47;14.82;;;13.63;;
10489;SDS011;35569;48.402;10.670;2022-12-18T03:28:24;14.73;;;13.40;;
10489;SDS011;35569;48.402;10.670;2022-12-18T03:29:06;16.02;;;14.38;;